EYSA/SQQ METAR and TAF weather

Enter ICAO airport designator
Station Type Date Time Source
EYSA METAR 2019/10/20 19:20 UTC NOAA

EYSA 201920Z 20007KT CAVOK 14/12 Q1015 BLU NOSIG


Station Type Date Time Source
EYSA Decoded METAR 2019/10/20 19:20 UTC NOAA

Siauliai Intl./Mil., Lithuania (EYSA) 55-53-38N 023-23-42E
Oct 20, 2019 - 03:20 PM EDT / 2019.10.20 1920 UTC
Wind: from the SSW (200 degrees) at 8 MPH (7 KT):0
Visibility: greater than 7 mile(s):0
Temperature: 57 F (14 C)
Dew Point: 53 F (12 C)
Relative Humidity: 87%
Pressure (altimeter): 29.97 in. Hg (1015 hPa)
ob: EYSA 201920Z 20007KT CAVOK 14/12 Q1015 BLU NOSIG
cycle: 19

Station Type Date Time Source
EYSA TAF 2019/08/16 06:03 UTC NOAA

TAF TAF EYSA 160501Z 1606/1618 17008KT CAVOK

Example: see airport list